sensor_id;sensor_type;location;lat;lon;timestamp;temperature;humidity
31765;DHT22;18338;53.240;8.798;2022-09-17T00:01:04;11.00;99.90
31765;DHT22;18338;53.240;8.798;2022-09-17T00:03:31;10.90;99.90
31765;DHT22;18338;53.240;8.798;2022-09-17T00:06:04;10.90;99.90
31765;DHT22;18338;53.240;8.798;2022-09-17T00:08:31;10.90;99.90
31765;DHT22;18338;53.240;8.798;2022-09-17T00:11:15;11.00;99.90
31765;DHT22;18338;53.240;8.798;2022-09-17T00:13:43;11.00;99.90
31765;DHT22;18338;53.240;8.798;2022-09-17T00:16:11;10.90;99.90
31765;DHT22;18338;53.240;8.798;2022-09-17T00:18:39;10.90;99.90
31765;DHT22;18338;53.240;8.798;2022-09-17T00:21:15;10.90;99.90
31765;DHT22;18338;53.240;8.798;2022-09-17T00:23:43;10.90;99.90
31765;DHT22;18338;53.240;8.798;2022-09-17T00:26:10;10.80;99.90
31765;DHT22;18338;53.240;8.798;2022-09-17T00:28:37;10.80;99.90
31765;DHT22;18338;53.240;8.798;2022-09-17T00:31:16;10.80;99.90
31765;DHT22;18338;53.240;8.798;2022-09-17T00:33:46;10.80;99.90
31765;DHT22;18338;53.240;8.798;2022-09-17T00:36:13;10.80;99.90
31765;DHT22;18338;53.240;8.798;2022-09-17T00:38:40;10.80;99.90
31765;DHT22;18338;53.240;8.798;2022-09-17T00:41:07;10.70;99.90
31765;DHT22;18338;53.240;8.798;2022-09-17T00:43:43;10.70;99.90
31765;DHT22;18338;53.240;8.798;2022-09-17T00:46:23;10.70;99.90
31765;DHT22;18338;53.240;8.798;2022-09-17T00:48:54;10.60;99.90
31765;DHT22;18338;53.240;8.798;2022-09-17T00:51:34;10.60;99.90
31765;DHT22;18338;53.240;8.798;2022-09-17T00:54:03;10.60;99.90
31765;DHT22;18338;53.240;8.798;2022-09-17T00:56:32;10.60;99.90
31765;DHT22;18338;53.240;8.798;2022-09-17T00:59:00;10.70;99.90
31765;DHT22;18338;53.240;8.798;2022-09-17T01:01:29;10.60;99.90
31765;DHT22;18338;53.240;8.798;2022-09-17T01:03:55;10.60;99.90
31765;DHT22;18338;53.240;8.798;2022-09-17T01:15:14;10.50;99.90
31765;DHT22;18338;53.240;8.798;2022-09-17T01:18:13;10.40;99.90
31765;DHT22;18338;53.240;8.798;2022-09-17T01:21:15;10.40;99.90
31765;DHT22;18338;53.240;8.798;2022-09-17T01:24:09;10.30;99.90
31765;DHT22;18338;53.240;8.798;2022-09-17T01:27:09;10.30;99.90
31765;DHT22;18338;53.240;8.798;2022-09-17T01:30:14;10.40;99.90
31765;DHT22;18338;53.240;8.798;2022-09-17T01:38:10;10.60;99.90
31765;DHT22;18338;53.240;8.798;2022-09-17T01:43:51;10.60;99.90
31765;DHT22;18338;53.240;8.798;2022-09-17T01:46:29;10.60;99.90
31765;DHT22;18338;53.240;8.798;2022-09-17T01:48:58;10.60;99.90
31765;DHT22;18338;53.240;8.798;2022-09-17T01:51:30;10.60;99.90
31765;DHT22;18338;53.240;8.798;2022-09-17T01:54:18;10.60;99.90
31765;DHT22;18338;53.240;8.798;2022-09-17T01:56:55;10.70;99.90
31765;DHT22;18338;53.240;8.798;2022-09-17T01:59:30;10.60;99.90
31765;DHT22;18338;53.240;8.798;2022-09-17T02:02:09;10.70;99.90
31765;DHT22;18338;53.240;8.798;2022-09-17T02:04:42;10.70;99.90
31765;DHT22;18338;53.240;8.798;2022-09-17T02:07:19;10.80;99.90
31765;DHT22;18338;53.240;8.798;2022-09-17T02:09:56;10.80;99.90
31765;DHT22;18338;53.240;8.798;2022-09-17T02:12:40;10.80;99.90
31765;DHT22;18338;53.240;8.798;2022-09-17T02:15:11;10.80;99.90
31765;DHT22;18338;53.240;8.798;2022-09-17T02:17:53;10.90;99.90
31765;DHT22;18338;53.240;8.798;2022-09-17T02:20:37;10.90;99.90
31765;DHT22;18338;53.240;8.798;2022-09-17T02:23:11;10.80;99.90
31765;DHT22;18338;53.240;8.798;2022-09-17T02:25:46;10.80;99.90
31765;DHT22;18338;53.240;8.798;2022-09-17T02:31:15;10.70;99.90
31765;DHT22;18338;53.240;8.798;2022-09-17T02:33:47;10.70;99.90
31765;DHT22;18338;53.240;8.798;2022-09-17T02:36:14;10.70;99.90
31765;DHT22;18338;53.240;8.798;2022-09-17T02:38:43;10.70;99.90
31765;DHT22;18338;53.240;8.798;2022-09-17T02:44:03;10.70;99.90
31765;DHT22;18338;53.240;8.798;2022-09-17T02:46:45;10.70;99.90
31765;DHT22;18338;53.240;8.798;2022-09-17T02:54:51;10.60;99.90
31765;DHT22;18338;53.240;8.798;2022-09-17T02:57:32;10.60;99.90
31765;DHT22;18338;53.240;8.798;2022-09-17T03:00:16;10.60;99.90
31765;DHT22;18338;53.240;8.798;2022-09-17T03:03:07;10.60;99.90
31765;DHT22;18338;53.240;8.798;2022-09-17T03:05:36;10.50;99.90
31765;DHT22;18338;53.240;8.798;2022-09-17T03:08:07;10.50;99.90
31765;DHT22;18338;53.240;8.798;2022-09-17T03:10:34;10.50;99.90
31765;DHT22;18338;53.240;8.798;2022-09-17T03:13:01;10.50;99.90
31765;DHT22;18338;53.240;8.798;2022-09-17T03:15:28;10.40;99.90
31765;DHT22;18338;53.240;8.798;2022-09-17T03:17:55;10.40;99.90
31765;DHT22;18338;53.240;8.798;2022-09-17T03:20:22;10.40;99.90
31765;DHT22;18338;53.240;8.798;2022-09-17T03:22:50;10.40;99.90
31765;DHT22;18338;53.240;8.798;2022-09-17T03:25:17;10.40;99.90
31765;DHT22;18338;53.240;8.798;2022-09-17T03:27:44;10.30;99.90
31765;DHT22;18338;53.240;8.798;2022-09-17T03:30:10;10.30;99.90
31765;DHT22;18338;53.240;8.798;2022-09-17T03:32:37;10.30;99.90
31765;DHT22;18338;53.240;8.798;2022-09-17T03:35:04;10.30;99.90
31765;DHT22;18338;53.240;8.798;2022-09-17T03:37:30;10.30;99.90
31765;DHT22;18338;53.240;8.798;2022-09-17T03:39:58;10.30;99.90
31765;DHT22;18338;53.240;8.798;2022-09-17T03:42:25;10.40;99.90
31765;DHT22;18338;53.240;8.798;2022-09-17T03:44:52;10.40;99.90
31765;DHT22;18338;53.240;8.798;2022-09-17T03:47:18;10.40;99.90
31765;DHT22;18338;53.240;8.798;2022-09-17T03:49:45;10.30;99.90
31765;DHT22;18338;53.240;8.798;2022-09-17T03:52:12;10.40;99.90
31765;DHT22;18338;53.240;8.798;2022-09-17T03:54:38;10.40;99.90
31765;DHT22;18338;53.240;8.798;2022-09-17T03:57:05;10.40;99.90
31765;DHT22;18338;53.240;8.798;2022-09-17T03:59:31;10.40;99.90
31765;DHT22;18338;53.240;8.798;2022-09-17T04:01:58;10.40;99.90
31765;DHT22;18338;53.240;8.798;2022-09-17T04:04:25;10.40;99.90
31765;DHT22;18338;53.240;8.798;2022-09-17T04:06:52;10.30;99.90
31765;DHT22;18338;53.240;8.798;2022-09-17T04:09:19;10.20;99.90
31765;DHT22;18338;53.240;8.798;2022-09-17T04:11:46;10.10;99.90
31765;DHT22;18338;53.240;8.798;2022-09-17T04:14:13;10.00;99.90
31765;DHT22;18338;53.240;8.798;2022-09-17T04:16:39;10.00;99.90
31765;DHT22;18338;53.240;8.798;2022-09-17T04:19:06;10.00;99.90
31765;DHT22;18338;53.240;8.798;2022-09-17T04:21:33;10.00;99.90
31765;DHT22;18338;53.240;8.798;2022-09-17T04:23:59;10.00;99.90
31765;DHT22;18338;53.240;8.798;2022-09-17T04:26:26;10.00;99.90
31765;DHT22;18338;53.240;8.798;2022-09-17T04:28:53;10.10;99.90
31765;DHT22;18338;53.240;8.798;2022-09-17T04:31:19;10.10;99.90
31765;DHT22;18338;53.240;8.798;2022-09-17T04:33:48;10.10;99.90
31765;DHT22;18338;53.240;8.798;2022-09-17T04:36:14;10.20;99.90
31765;DHT22;18338;53.240;8.798;2022-09-17T04:38:41;10.20;99.90
31765;DHT22;18338;53.240;8.798;2022-09-17T04:41:08;10.20;99.90
31765;DHT22;18338;53.240;8.798;2022-09-17T04:43:34;10.20;99.90
31765;DHT22;18338;53.240;8.798;2022-09-17T04:46:01;10.10;99.90
31765;DHT22;18338;53.240;8.798;2022-09-17T04:48:27;10.10;99.90
31765;DHT22;18338;53.240;8.798;2022-09-17T04:50:54;10.00;99.90
31765;DHT22;18338;53.240;8.798;2022-09-17T04:56:16;10.00;99.90
31765;DHT22;18338;53.240;8.798;2022-09-17T04:58:43;10.00;99.90
31765;DHT22;18338;53.240;8.798;2022-09-17T05:01:09;10.00;99.90
31765;DHT22;18338;53.240;8.798;2022-09-17T05:03:36;10.00;99.90
31765;DHT22;18338;53.240;8.798;2022-09-17T05:06:03;10.00;99.90
31765;DHT22;18338;53.240;8.798;2022-09-17T05:08:29;9.90;99.90
31765;DHT22;18338;53.240;8.798;2022-09-17T05:10:56;9.80;99.90
31765;DHT22;18338;53.240;8.798;2022-09-17T05:13:23;9.80;99.90
31765;DHT22;18338;53.240;8.798;2022-09-17T05:15:49;9.80;99.90
31765;DHT22;18338;53.240;8.798;2022-09-17T05:18:16;9.80;99.90
31765;DHT22;18338;53.240;8.798;2022-09-17T05:20:43;9.80;99.90
31765;DHT22;18338;53.240;8.798;2022-09-17T05:23:09;9.80;99.90
31765;DHT22;18338;53.240;8.798;2022-09-17T05:25:36;9.90;99.90
31765;DHT22;18338;53.240;8.798;2022-09-17T05:28:03;9.90;99.90
31765;DHT22;18338;53.240;8.798;2022-09-17T05:30:29;9.90;99.90
31765;DHT22;18338;53.240;8.798;2022-09-17T05:33:04;9.90;99.90
31765;DHT22;18338;53.240;8.798;2022-09-17T05:35:32;9.80;99.90
31765;DHT22;18338;53.240;8.798;2022-09-17T05:38:03;9.80;99.90
31765;DHT22;18338;53.240;8.798;2022-09-17T05:40:30;9.70;99.90
31765;DHT22;18338;53.240;8.798;2022-09-17T05:42:59;9.70;99.90
31765;DHT22;18338;53.240;8.798;2022-09-17T05:45:27;9.70;99.90
31765;DHT22;18338;53.240;8.798;2022-09-17T05:47:57;9.60;99.90
31765;DHT22;18338;53.240;8.798;2022-09-17T05:50:25;9.50;99.90
31765;DHT22;18338;53.240;8.798;2022-09-17T05:52:53;9.50;99.90
31765;DHT22;18338;53.240;8.798;2022-09-17T05:55:21;9.40;99.90
31765;DHT22;18338;53.240;8.798;2022-09-17T05:57:50;9.40;99.90
31765;DHT22;18338;53.240;8.798;2022-09-17T06:00:17;9.40;99.90
31765;DHT22;18338;53.240;8.798;2022-09-17T06:02:44;9.50;99.90
31765;DHT22;18338;53.240;8.798;2022-09-17T06:05:10;9.60;99.90
31765;DHT22;18338;53.240;8.798;2022-09-17T06:07:38;9.60;99.90
31765;DHT22;18338;53.240;8.798;2022-09-17T06:10:05;9.60;99.90
31765;DHT22;18338;53.240;8.798;2022-09-17T06:12:33;9.60;99.90
31765;DHT22;18338;53.240;8.798;2022-09-17T06:15:02;9.70;99.90
31765;DHT22;18338;53.240;8.798;2022-09-17T06:17:32;9.80;99.90
31765;DHT22;18338;53.240;8.798;2022-09-17T06:20:00;9.80;99.90
31765;DHT22;18338;53.240;8.798;2022-09-17T06:22:26;9.80;99.90
31765;DHT22;18338;53.240;8.798;2022-09-17T06:24:53;9.90;99.90
31765;DHT22;18338;53.240;8.798;2022-09-17T06:27:20;9.90;99.90
31765;DHT22;18338;53.240;8.798;2022-09-17T06:29:46;9.90;99.90
31765;DHT22;18338;53.240;8.798;2022-09-17T06:32:13;9.90;99.90
31765;DHT22;18338;53.240;8.798;2022-09-17T06:34:42;9.90;99.90
31765;DHT22;18338;53.240;8.798;2022-09-17T06:37:09;9.90;99.90
31765;DHT22;18338;53.240;8.798;2022-09-17T06:39:35;10.00;99.90
31765;DHT22;18338;53.240;8.798;2022-09-17T06:42:02;10.20;99.90
31765;DHT22;18338;53.240;8.798;2022-09-17T06:44:29;10.20;99.90
31765;DHT22;18338;53.240;8.798;2022-09-17T06:46:56;10.20;99.90
31765;DHT22;18338;53.240;8.798;2022-09-17T06:49:22;10.30;99.90
31765;DHT22;18338;53.240;8.798;2022-09-17T06:51:49;10.40;99.90
31765;DHT22;18338;53.240;8.798;2022-09-17T06:54:16;10.50;99.90
31765;DHT22;18338;53.240;8.798;2022-09-17T06:56:45;10.70;99.90
31765;DHT22;18338;53.240;8.798;2022-09-17T06:59:12;10.70;99.90
31765;DHT22;18338;53.240;8.798;2022-09-17T07:01:39;10.70;99.90
31765;DHT22;18338;53.240;8.798;2022-09-17T07:04:05;10.80;99.90
31765;DHT22;18338;53.240;8.798;2022-09-17T07:06:32;11.00;99.90
31765;DHT22;18338;53.240;8.798;2022-09-17T07:08:58;11.30;99.90
31765;DHT22;18338;53.240;8.798;2022-09-17T07:11:25;11.50;99.90
31765;DHT22;18338;53.240;8.798;2022-09-17T07:13:52;11.50;99.90
31765;DHT22;18338;53.240;8.798;2022-09-17T07:16:18;11.40;99.90
31765;DHT22;18338;53.240;8.798;2022-09-17T07:18:45;11.50;99.90
31765;DHT22;18338;53.240;8.798;2022-09-17T07:21:12;11.30;99.90
31765;DHT22;18338;53.240;8.798;2022-09-17T07:23:39;11.30;99.90
31765;DHT22;18338;53.240;8.798;2022-09-17T07:26:11;11.30;99.90
31765;DHT22;18338;53.240;8.798;2022-09-17T07:28:39;11.30;99.90
31765;DHT22;18338;53.240;8.798;2022-09-17T07:31:06;11.30;99.90
31765;DHT22;18338;53.240;8.798;2022-09-17T07:33:39;11.30;99.90
31765;DHT22;18338;53.240;8.798;2022-09-17T07:36:09;11.40;99.90
31765;DHT22;18338;53.240;8.798;2022-09-17T07:38:36;11.50;99.90
31765;DHT22;18338;53.240;8.798;2022-09-17T07:41:12;11.50;99.90
31765;DHT22;18338;53.240;8.798;2022-09-17T07:43:40;11.60;99.90
31765;DHT22;18338;53.240;8.798;2022-09-17T07:46:09;11.70;99.90
31765;DHT22;18338;53.240;8.798;2022-09-17T07:48:38;11.80;99.90
31765;DHT22;18338;53.240;8.798;2022-09-17T07:51:05;11.90;99.90
31765;DHT22;18338;53.240;8.798;2022-09-17T07:53:32;12.10;99.90
31765;DHT22;18338;53.240;8.798;2022-09-17T07:55:59;12.40;99.90
31765;DHT22;18338;53.240;8.798;2022-09-17T07:58:32;12.90;99.90
31765;DHT22;18338;53.240;8.798;2022-09-17T08:01:01;13.20;99.90
31765;DHT22;18338;53.240;8.798;2022-09-17T08:03:29;13.10;99.90
31765;DHT22;18338;53.240;8.798;2022-09-17T08:06:07;12.70;99.90
31765;DHT22;18338;53.240;8.798;2022-09-17T08:08:35;12.30;99.90
31765;DHT22;18338;53.240;8.798;2022-09-17T08:11:10;12.30;99.90
31765;DHT22;18338;53.240;8.798;2022-09-17T08:13:37;12.40;99.90
31765;DHT22;18338;53.240;8.798;2022-09-17T08:16:09;12.70;99.90
31765;DHT22;18338;53.240;8.798;2022-09-17T08:18:39;13.10;99.90
31765;DHT22;18338;53.240;8.798;2022-09-17T08:21:08;13.40;99.90
31765;DHT22;18338;53.240;8.798;2022-09-17T08:23:36;13.50;99.90
31765;DHT22;18338;53.240;8.798;2022-09-17T08:26:04;13.40;99.90
31765;DHT22;18338;53.240;8.798;2022-09-17T08:28:32;13.40;99.90
31765;DHT22;18338;53.240;8.798;2022-09-17T08:31:07;13.70;99.90
31765;DHT22;18338;53.240;8.798;2022-09-17T08:33:35;14.30;99.90
31765;DHT22;18338;53.240;8.798;2022-09-17T08:36:03;15.10;99.90
31765;DHT22;18338;53.240;8.798;2022-09-17T08:38:32;16.40;99.90
31765;DHT22;18338;53.240;8.798;2022-09-17T08:43:56;15.10;99.90
31765;DHT22;18338;53.240;8.798;2022-09-17T08:46:27;14.60;99.90
31765;DHT22;18338;53.240;8.798;2022-09-17T09:00:12;13.40;99.90
31765;DHT22;18338;53.240;8.798;2022-09-17T09:05:43;12.10;99.90
31765;DHT22;18338;53.240;8.798;2022-09-17T09:08:31;11.60;99.90
31765;DHT22;18338;53.240;8.798;2022-09-17T09:11:01;11.10;99.90
31765;DHT22;18338;53.240;8.798;2022-09-17T09:13:34;10.70;99.90
31765;DHT22;18338;53.240;8.798;2022-09-17T09:16:05;10.50;99.90
31765;DHT22;18338;53.240;8.798;2022-09-17T09:18:37;10.30;99.90
31765;DHT22;18338;53.240;8.798;2022-09-17T09:26:22;10.00;99.90
31765;DHT22;18338;53.240;8.798;2022-09-17T09:29:14;10.10;99.90
31765;DHT22;18338;53.240;8.798;2022-09-17T09:34:26;10.20;99.90
31765;DHT22;18338;53.240;8.798;2022-09-17T09:37:17;10.40;99.90
31765;DHT22;18338;53.240;8.798;2022-09-17T09:39:46;10.50;99.90
31765;DHT22;18338;53.240;8.798;2022-09-17T09:42:32;10.40;99.90
31765;DHT22;18338;53.240;8.798;2022-09-17T09:45:06;10.50;99.90
31765;DHT22;18338;53.240;8.798;2022-09-17T09:48:03;10.50;99.90
31765;DHT22;18338;53.240;8.798;2022-09-17T09:51:11;10.40;99.90
31765;DHT22;18338;53.240;8.798;2022-09-17T09:56:54;10.40;99.90
31765;DHT22;18338;53.240;8.798;2022-09-17T09:59:40;10.60;99.90
31765;DHT22;18338;53.240;8.798;2022-09-17T10:02:08;10.70;99.90
31765;DHT22;18338;53.240;8.798;2022-09-17T10:04:35;10.60;99.90
31765;DHT22;18338;53.240;8.798;2022-09-17T10:07:11;10.60;99.90
31765;DHT22;18338;53.240;8.798;2022-09-17T10:09:44;10.50;99.90
31765;DHT22;18338;53.240;8.798;2022-09-17T10:14:39;10.70;99.90
31765;DHT22;18338;53.240;8.798;2022-09-17T10:17:25;11.00;99.90
31765;DHT22;18338;53.240;8.798;2022-09-17T10:22:31;10.80;99.90
31765;DHT22;18338;53.240;8.798;2022-09-17T10:25:05;10.60;99.90
31765;DHT22;18338;53.240;8.798;2022-09-17T10:27:33;10.40;99.90
31765;DHT22;18338;53.240;8.798;2022-09-17T10:32:40;10.20;99.90
31765;DHT22;18338;53.240;8.798;2022-09-17T10:37:49;10.10;99.90
31765;DHT22;18338;53.240;8.798;2022-09-17T10:46:24;10.10;99.90
31765;DHT22;18338;53.240;8.798;2022-09-17T10:53:03;10.20;99.90
31765;DHT22;18338;53.240;8.798;2022-09-17T10:58:28;10.50;99.90
31765;DHT22;18338;53.240;8.798;2022-09-17T11:04:21;10.80;99.90
31765;DHT22;18338;53.240;8.798;2022-09-17T11:16:13;10.70;99.90
31765;DHT22;18338;53.240;8.798;2022-09-17T11:18:48;10.60;99.90
31765;DHT22;18338;53.240;8.798;2022-09-17T11:21:26;10.50;99.90
31765;DHT22;18338;53.240;8.798;2022-09-17T11:24:12;10.50;99.90
31765;DHT22;18338;53.240;8.798;2022-09-17T11:32:58;11.00;99.90
31765;DHT22;18338;53.240;8.798;2022-09-17T11:35:27;11.10;99.90
31765;DHT22;18338;53.240;8.798;2022-09-17T11:38:00;11.00;99.90
31765;DHT22;18338;53.240;8.798;2022-09-17T11:40:58;10.90;99.90
31765;DHT22;18338;53.240;8.798;2022-09-17T11:43:28;10.80;99.90
31765;DHT22;18338;53.240;8.798;2022-09-17T11:46:00;10.70;99.90
31765;DHT22;18338;53.240;8.798;2022-09-17T11:56:49;10.40;99.90
31765;DHT22;18338;53.240;8.798;2022-09-17T11:59:30;10.30;99.90
31765;DHT22;18338;53.240;8.798;2022-09-17T12:02:19;10.30;99.90
31765;DHT22;18338;53.240;8.798;2022-09-17T12:05:00;10.40;99.90
31765;DHT22;18338;53.240;8.798;2022-09-17T12:07:49;10.40;99.90
31765;DHT22;18338;53.240;8.798;2022-09-17T12:10:28;10.50;99.90
31765;DHT22;18338;53.240;8.798;2022-09-17T12:19:03;10.70;99.90
31765;DHT22;18338;53.240;8.798;2022-09-17T12:21:41;10.80;99.90
31765;DHT22;18338;53.240;8.798;2022-09-17T12:24:20;10.80;99.90
31765;DHT22;18338;53.240;8.798;2022-09-17T12:30:03;10.70;99.90
31765;DHT22;18338;53.240;8.798;2022-09-17T12:35:54;10.80;99.90
31765;DHT22;18338;53.240;8.798;2022-09-17T12:38:47;10.90;99.90
31765;DHT22;18338;53.240;8.798;2022-09-17T12:41:35;11.00;99.90
31765;DHT22;18338;53.240;8.798;2022-09-17T12:44:09;11.10;99.90
31765;DHT22;18338;53.240;8.798;2022-09-17T12:49:42;11.20;99.90
31765;DHT22;18338;53.240;8.798;2022-09-17T12:55:39;11.40;99.90
31765;DHT22;18338;53.240;8.798;2022-09-17T13:00:58;11.70;99.90
31765;DHT22;18338;53.240;8.798;2022-09-17T13:03:48;11.80;99.90
31765;DHT22;18338;53.240;8.798;2022-09-17T13:06:40;11.90;99.90
31765;DHT22;18338;53.240;8.798;2022-09-17T13:12:23;11.90;99.90
31765;DHT22;18338;53.240;8.798;2022-09-17T13:15:03;11.90;99.90
31765;DHT22;18338;53.240;8.798;2022-09-17T13:17:56;11.90;99.90
31765;DHT22;18338;53.240;8.798;2022-09-17T13:23:40;11.80;99.90
31765;DHT22;18338;53.240;8.798;2022-09-17T13:26:08;11.70;99.90
31765;DHT22;18338;53.240;8.798;2022-09-17T13:28:47;11.70;99.90
31765;DHT22;18338;53.240;8.798;2022-09-17T13:31:21;11.70;99.90
31765;DHT22;18338;53.240;8.798;2022-09-17T13:36:35;11.60;99.90
31765;DHT22;18338;53.240;8.798;2022-09-17T13:39:05;11.60;99.90
31765;DHT22;18338;53.240;8.798;2022-09-17T13:41:35;11.60;99.90
31765;DHT22;18338;53.240;8.798;2022-09-17T13:44:06;11.70;99.90
31765;DHT22;18338;53.240;8.798;2022-09-17T13:46:34;11.70;99.90
31765;DHT22;18338;53.240;8.798;2022-09-17T13:49:04;11.80;99.90
31765;DHT22;18338;53.240;8.798;2022-09-17T13:54:07;12.00;99.90
31765;DHT22;18338;53.240;8.798;2022-09-17T13:56:38;12.00;99.90
31765;DHT22;18338;53.240;8.798;2022-09-17T14:07:30;11.80;99.90
31765;DHT22;18338;53.240;8.798;2022-09-17T14:10:26;11.90;99.90
31765;DHT22;18338;53.240;8.798;2022-09-17T14:12:53;11.90;99.90
31765;DHT22;18338;53.240;8.798;2022-09-17T14:24:12;11.80;99.90
31765;DHT22;18338;53.240;8.798;2022-09-17T14:29:27;11.60;99.90
31765;DHT22;18338;53.240;8.798;2022-09-17T14:31:56;11.60;99.90
31765;DHT22;18338;53.240;8.798;2022-09-17T14:34:25;11.60;99.90
31765;DHT22;18338;53.240;8.798;2022-09-17T14:36:53;11.70;99.90
31765;DHT22;18338;53.240;8.798;2022-09-17T14:39:24;11.70;99.90
31765;DHT22;18338;53.240;8.798;2022-09-17T14:41:53;11.70;99.90
31765;DHT22;18338;53.240;8.798;2022-09-17T14:44:24;11.60;99.90
31765;DHT22;18338;53.240;8.798;2022-09-17T14:46:59;11.60;99.90
31765;DHT22;18338;53.240;8.798;2022-09-17T14:49:33;11.60;99.90
31765;DHT22;18338;53.240;8.798;2022-09-17T14:52:01;11.50;99.90
31765;DHT22;18338;53.240;8.798;2022-09-17T14:54:29;11.60;99.90
31765;DHT22;18338;53.240;8.798;2022-09-17T14:57:25;11.60;99.90
31765;DHT22;18338;53.240;8.798;2022-09-17T14:59:57;11.60;99.90
31765;DHT22;18338;53.240;8.798;2022-09-17T15:02:37;11.60;99.90
31765;DHT22;18338;53.240;8.798;2022-09-17T15:07:48;11.70;99.90
31765;DHT22;18338;53.240;8.798;2022-09-17T15:10:19;11.80;99.90
31765;DHT22;18338;53.240;8.798;2022-09-17T15:12:47;11.80;99.90
31765;DHT22;18338;53.240;8.798;2022-09-17T15:15:19;11.80;99.90
31765;DHT22;18338;53.240;8.798;2022-09-17T15:17:48;11.70;99.90
31765;DHT22;18338;53.240;8.798;2022-09-17T15:20:22;11.60;99.90
31765;DHT22;18338;53.240;8.798;2022-09-17T15:25:22;11.50;99.90
31765;DHT22;18338;53.240;8.798;2022-09-17T15:27:54;11.50;99.90
31765;DHT22;18338;53.240;8.798;2022-09-17T15:30:31;11.50;99.90
31765;DHT22;18338;53.240;8.798;2022-09-17T15:33:07;11.50;99.90
31765;DHT22;18338;53.240;8.798;2022-09-17T15:35:43;11.50;99.90
31765;DHT22;18338;53.240;8.798;2022-09-17T15:38:29;11.40;99.90
31765;DHT22;18338;53.240;8.798;2022-09-17T15:41:29;11.40;99.90
31765;DHT22;18338;53.240;8.798;2022-09-17T15:44:38;11.30;99.90
31765;DHT22;18338;53.240;8.798;2022-09-17T15:52:39;11.10;99.90
31765;DHT22;18338;53.240;8.798;2022-09-17T15:55:36;11.10;99.90
31765;DHT22;18338;53.240;8.798;2022-09-17T15:58:28;11.00;99.90
31765;DHT22;18338;53.240;8.798;2022-09-17T16:01:35;11.00;99.90
31765;DHT22;18338;53.240;8.798;2022-09-17T16:08:18;11.00;99.90
31765;DHT22;18338;53.240;8.798;2022-09-17T16:10:55;11.00;99.90
31765;DHT22;18338;53.240;8.798;2022-09-17T16:13:25;11.00;99.90
31765;DHT22;18338;53.240;8.798;2022-09-17T16:16:14;11.10;99.90
31765;DHT22;18338;53.240;8.798;2022-09-17T16:18:50;11.10;99.90
31765;DHT22;18338;53.240;8.798;2022-09-17T16:21:18;11.20;99.90
31765;DHT22;18338;53.240;8.798;2022-09-17T16:23:45;11.30;99.90
31765;DHT22;18338;53.240;8.798;2022-09-17T16:26:21;11.30;99.90
31765;DHT22;18338;53.240;8.798;2022-09-17T16:28:55;11.50;99.90
31765;DHT22;18338;53.240;8.798;2022-09-17T16:31:28;11.70;99.90
31765;DHT22;18338;53.240;8.798;2022-09-17T16:34:00;11.70;99.90
31765;DHT22;18338;53.240;8.798;2022-09-17T16:36:30;11.80;99.90
31765;DHT22;18338;53.240;8.798;2022-09-17T16:38:58;11.80;99.90
31765;DHT22;18338;53.240;8.798;2022-09-17T16:41:27;11.90;99.90
31765;DHT22;18338;53.240;8.798;2022-09-17T16:43:54;11.80;99.90
31765;DHT22;18338;53.240;8.798;2022-09-17T16:46:29;11.60;99.90
31765;DHT22;18338;53.240;8.798;2022-09-17T16:49:05;11.50;99.90
31765;DHT22;18338;53.240;8.798;2022-09-17T16:51:34;11.40;99.90
31765;DHT22;18338;53.240;8.798;2022-09-17T16:54:01;11.30;99.90
31765;DHT22;18338;53.240;8.798;2022-09-17T16:56:28;11.20;99.90
31765;DHT22;18338;53.240;8.798;2022-09-17T16:58:55;11.20;99.90
31765;DHT22;18338;53.240;8.798;2022-09-17T17:01:22;11.10;99.90
31765;DHT22;18338;53.240;8.798;2022-09-17T17:03:50;11.00;99.90
31765;DHT22;18338;53.240;8.798;2022-09-17T17:06:19;10.90;99.90
31765;DHT22;18338;53.240;8.798;2022-09-17T17:08:49;10.90;99.90
31765;DHT22;18338;53.240;8.798;2022-09-17T17:11:17;10.80;99.90
31765;DHT22;18338;53.240;8.798;2022-09-17T17:13:44;10.80;99.90
31765;DHT22;18338;53.240;8.798;2022-09-17T17:16:13;10.80;99.90
31765;DHT22;18338;53.240;8.798;2022-09-17T17:18:42;10.80;99.90
31765;DHT22;18338;53.240;8.798;2022-09-17T17:21:17;10.70;99.90
31765;DHT22;18338;53.240;8.798;2022-09-17T17:23:56;10.60;99.90
31765;DHT22;18338;53.240;8.798;2022-09-17T17:30:06;10.70;99.90
31765;DHT22;18338;53.240;8.798;2022-09-17T17:32:38;10.80;99.90
31765;DHT22;18338;53.240;8.798;2022-09-17T17:35:10;10.70;99.90
31765;DHT22;18338;53.240;8.798;2022-09-17T17:38:18;10.70;99.90
31765;DHT22;18338;53.240;8.798;2022-09-17T17:43:40;10.80;99.90
31765;DHT22;18338;53.240;8.798;2022-09-17T17:46:08;10.80;99.90
31765;DHT22;18338;53.240;8.798;2022-09-17T17:48:37;10.80;99.90
31765;DHT22;18338;53.240;8.798;2022-09-17T17:51:06;10.80;99.90
31765;DHT22;18338;53.240;8.798;2022-09-17T17:53:40;10.80;99.90
31765;DHT22;18338;53.240;8.798;2022-09-17T17:56:21;10.80;99.90
31765;DHT22;18338;53.240;8.798;2022-09-17T17:58:53;10.90;99.90
31765;DHT22;18338;53.240;8.798;2022-09-17T18:01:25;10.90;99.90
31765;DHT22;18338;53.240;8.798;2022-09-17T18:03:56;10.90;99.90
31765;DHT22;18338;53.240;8.798;2022-09-17T18:06:24;10.80;99.90
31765;DHT22;18338;53.240;8.798;2022-09-17T18:08:51;10.80;99.90
31765;DHT22;18338;53.240;8.798;2022-09-17T18:11:19;10.80;99.90
31765;DHT22;18338;53.240;8.798;2022-09-17T18:13:50;10.70;99.90
31765;DHT22;18338;53.240;8.798;2022-09-17T18:16:17;10.90;99.90
31765;DHT22;18338;53.240;8.798;2022-09-17T18:18:44;10.90;99.90
31765;DHT22;18338;53.240;8.798;2022-09-17T18:21:19;11.00;99.90
31765;DHT22;18338;53.240;8.798;2022-09-17T18:23:46;11.00;99.90
31765;DHT22;18338;53.240;8.798;2022-09-17T18:26:16;11.00;99.90
31765;DHT22;18338;53.240;8.798;2022-09-17T18:28:44;11.00;99.90
31765;DHT22;18338;53.240;8.798;2022-09-17T18:31:26;10.90;99.90
31765;DHT22;18338;53.240;8.798;2022-09-17T18:34:11;10.80;99.90
31765;DHT22;18338;53.240;8.798;2022-09-17T18:36:39;10.80;99.90
31765;DHT22;18338;53.240;8.798;2022-09-17T18:39:09;10.70;99.90
31765;DHT22;18338;53.240;8.798;2022-09-17T18:41:56;10.70;99.90
31765;DHT22;18338;53.240;8.798;2022-09-17T18:44:23;10.70;99.90
31765;DHT22;18338;53.240;8.798;2022-09-17T18:46:50;10.60;99.90
31765;DHT22;18338;53.240;8.798;2022-09-17T18:49:17;10.50;99.90
31765;DHT22;18338;53.240;8.798;2022-09-17T18:51:44;10.30;99.90
31765;DHT22;18338;53.240;8.798;2022-09-17T18:54:10;10.30;99.90
31765;DHT22;18338;53.240;8.798;2022-09-17T18:56:40;10.20;99.90
31765;DHT22;18338;53.240;8.798;2022-09-17T18:59:08;10.20;99.90
31765;DHT22;18338;53.240;8.798;2022-09-17T19:01:35;10.10;99.90
31765;DHT22;18338;53.240;8.798;2022-09-17T19:04:02;10.10;99.90
31765;DHT22;18338;53.240;8.798;2022-09-17T19:06:29;10.00;99.90
31765;DHT22;18338;53.240;8.798;2022-09-17T19:09:02;9.90;99.90